X  Fermer Données météorologiques d'aviation de Metar     EDDK Cologne Bonn Airport
Température
10°C Température
5°C Point de rosée
71% Humidité



Vent
9 MPH
14 KM/H
4 M/S
8 KTS



270°
O
Conditions actuelles

Plutôt nuageux Plutôt nuageux
Pression 1015.92 (hPa) - 30 (inHg)
Visibilité 6 (mile) - 9.7 (km)
Aéroport
Code de l'aéroport EDDK

Emplacement: Cologne Bonn Airport
Distance: 56 (mi)

Metar:
EDDK 271220Z AUTO 27008KT 9999 BKN024 BKN029 10/05 Q1016 NOSIG

Temps: 2024-02-27 13:20 CET